Terminal Aerodrome Forecast
Issued by NWS Shreveport, LA

Home | Current Version | Previous Version | Text Only | Print | Product List | Glossary On
Versions: 1 2 3 4 5 6 7 8 9 10 11 12 13 14 15 16 17
000
FTUS44 KSHV 181123
TAFMLU
TAF
KMLU 181123Z 1812/1912 20010KT P6SM BKN020
     FM181400 22015G20KT P6SM BKN020
     FM182000 26017G25KT P6SM VCSH SCT020 BKN040
     FM182300 32020G28KT P6SM BKN050
     FM190300 34012KT P6SM BKN250
     FM190600 34008KT P6SM SKC=

USA.gov is the U.S. government's official web portal to all federal, state and local government web resources and services.